sensor_id;sensor_type;location;lat;lon;timestamp;temperature;humidity
8537;DHT22;4306;50.210;10.628;2023-08-21T00:00:41;22.10;99.90
8537;DHT22;4306;50.210;10.628;2023-08-21T00:03:08;22.10;99.90
8537;DHT22;4306;50.210;10.628;2023-08-21T00:05:35;22.10;99.90
8537;DHT22;4306;50.210;10.628;2023-08-21T00:08:01;22.00;99.90
8537;DHT22;4306;50.210;10.628;2023-08-21T00:10:30;22.00;99.90
8537;DHT22;4306;50.210;10.628;2023-08-21T00:12:57;22.00;99.90
8537;DHT22;4306;50.210;10.628;2023-08-21T00:15:24;21.90;99.90
8537;DHT22;4306;50.210;10.628;2023-08-21T00:17:51;21.80;99.90
8537;DHT22;4306;50.210;10.628;2023-08-21T00:20:18;21.70;99.90
8537;DHT22;4306;50.210;10.628;2023-08-21T00:22:44;21.70;99.90
8537;DHT22;4306;50.210;10.628;2023-08-21T00:25:11;21.70;99.90
8537;DHT22;4306;50.210;10.628;2023-08-21T00:27:39;21.70;99.90
8537;DHT22;4306;50.210;10.628;2023-08-21T00:30:07;21.80;99.90
8537;DHT22;4306;50.210;10.628;2023-08-21T00:32:34;21.80;99.90
8537;DHT22;4306;50.210;10.628;2023-08-21T00:35:01;21.70;99.90
8537;DHT22;4306;50.210;10.628;2023-08-21T00:37:28;21.50;99.90
8537;DHT22;4306;50.210;10.628;2023-08-21T00:39:55;21.50;99.90
8537;DHT22;4306;50.210;10.628;2023-08-21T00:42:22;21.50;99.90
8537;DHT22;4306;50.210;10.628;2023-08-21T00:44:50;21.60;99.90
8537;DHT22;4306;50.210;10.628;2023-08-21T00:47:17;21.60;99.90
8537;DHT22;4306;50.210;10.628;2023-08-21T00:49:45;21.60;99.90
8537;DHT22;4306;50.210;10.628;2023-08-21T00:52:13;21.60;99.90
8537;DHT22;4306;50.210;10.628;2023-08-21T00:54:42;21.70;99.90
8537;DHT22;4306;50.210;10.628;2023-08-21T00:57:09;21.60;99.90
8537;DHT22;4306;50.210;10.628;2023-08-21T00:59:37;21.60;99.90
8537;DHT22;4306;50.210;10.628;2023-08-21T01:02:05;21.50;99.90
8537;DHT22;4306;50.210;10.628;2023-08-21T01:04:32;21.40;99.90
8537;DHT22;4306;50.210;10.628;2023-08-21T01:06:59;21.30;99.90
8537;DHT22;4306;50.210;10.628;2023-08-21T01:09:31;21.40;99.90
8537;DHT22;4306;50.210;10.628;2023-08-21T01:12:06;21.30;99.90
8537;DHT22;4306;50.210;10.628;2023-08-21T01:14:42;21.30;99.90
8537;DHT22;4306;50.210;10.628;2023-08-21T01:17:11;21.30;99.90
8537;DHT22;4306;50.210;10.628;2023-08-21T01:19:42;21.30;99.90
8537;DHT22;4306;50.210;10.628;2023-08-21T01:22:09;21.10;99.90
8537;DHT22;4306;50.210;10.628;2023-08-21T01:24:38;21.00;99.90
8537;DHT22;4306;50.210;10.628;2023-08-21T01:27:05;21.00;99.90
8537;DHT22;4306;50.210;10.628;2023-08-21T01:29:32;21.00;99.90
8537;DHT22;4306;50.210;10.628;2023-08-21T01:32:06;21.00;99.90
8537;DHT22;4306;50.210;10.628;2023-08-21T01:34:34;20.90;99.90
8537;DHT22;4306;50.210;10.628;2023-08-21T01:37:02;21.00;99.90
8537;DHT22;4306;50.210;10.628;2023-08-21T01:39:29;21.00;99.90
8537;DHT22;4306;50.210;10.628;2023-08-21T01:41:58;21.00;99.90
8537;DHT22;4306;50.210;10.628;2023-08-21T01:44:25;21.00;99.90
8537;DHT22;4306;50.210;10.628;2023-08-21T01:46:52;21.00;99.90
8537;DHT22;4306;50.210;10.628;2023-08-21T01:49:19;20.90;99.90
8537;DHT22;4306;50.210;10.628;2023-08-21T01:51:46;20.90;99.90
8537;DHT22;4306;50.210;10.628;2023-08-21T01:54:13;20.90;99.90
8537;DHT22;4306;50.210;10.628;2023-08-21T01:56:40;20.90;99.90
8537;DHT22;4306;50.210;10.628;2023-08-21T01:59:08;20.80;99.90
8537;DHT22;4306;50.210;10.628;2023-08-21T02:01:35;20.70;99.90
8537;DHT22;4306;50.210;10.628;2023-08-21T02:04:02;20.60;99.90
8537;DHT22;4306;50.210;10.628;2023-08-21T02:06:29;20.70;99.90
8537;DHT22;4306;50.210;10.628;2023-08-21T02:08:56;20.70;99.90
8537;DHT22;4306;50.210;10.628;2023-08-21T02:11:22;20.80;99.90
8537;DHT22;4306;50.210;10.628;2023-08-21T02:13:49;20.80;99.90
8537;DHT22;4306;50.210;10.628;2023-08-21T02:16:17;20.70;99.90
8537;DHT22;4306;50.210;10.628;2023-08-21T02:18:45;20.60;99.90
8537;DHT22;4306;50.210;10.628;2023-08-21T02:21:13;20.60;99.90
8537;DHT22;4306;50.210;10.628;2023-08-21T02:23:40;20.60;99.90
8537;DHT22;4306;50.210;10.628;2023-08-21T02:26:06;20.60;99.90
8537;DHT22;4306;50.210;10.628;2023-08-21T02:28:33;20.30;99.90
8537;DHT22;4306;50.210;10.628;2023-08-21T02:31:00;20.40;99.90
8537;DHT22;4306;50.210;10.628;2023-08-21T02:33:28;20.20;99.90
8537;DHT22;4306;50.210;10.628;2023-08-21T02:35:55;20.20;99.90
8537;DHT22;4306;50.210;10.628;2023-08-21T02:38:22;20.10;99.90
8537;DHT22;4306;50.210;10.628;2023-08-21T02:40:49;20.20;99.90
8537;DHT22;4306;50.210;10.628;2023-08-21T02:43:15;20.40;99.90
8537;DHT22;4306;50.210;10.628;2023-08-21T02:45:42;20.30;99.90
8537;DHT22;4306;50.210;10.628;2023-08-21T02:48:09;20.40;99.90
8537;DHT22;4306;50.210;10.628;2023-08-21T02:50:37;20.40;99.90
8537;DHT22;4306;50.210;10.628;2023-08-21T02:53:04;20.40;99.90
8537;DHT22;4306;50.210;10.628;2023-08-21T02:55:31;20.40;99.90
8537;DHT22;4306;50.210;10.628;2023-08-21T02:57:58;20.40;99.90
8537;DHT22;4306;50.210;10.628;2023-08-21T03:00:25;20.30;99.90
8537;DHT22;4306;50.210;10.628;2023-08-21T03:02:51;20.40;99.90
8537;DHT22;4306;50.210;10.628;2023-08-21T03:05:18;20.30;99.90
8537;DHT22;4306;50.210;10.628;2023-08-21T03:07:46;20.30;99.90
8537;DHT22;4306;50.210;10.628;2023-08-21T03:10:13;20.20;99.90
8537;DHT22;4306;50.210;10.628;2023-08-21T03:12:40;20.10;99.90
8537;DHT22;4306;50.210;10.628;2023-08-21T03:15:07;20.20;99.90
8537;DHT22;4306;50.210;10.628;2023-08-21T03:17:34;20.20;99.90
8537;DHT22;4306;50.210;10.628;2023-08-21T03:20:02;20.20;99.90
8537;DHT22;4306;50.210;10.628;2023-08-21T03:22:30;20.20;99.90
8537;DHT22;4306;50.210;10.628;2023-08-21T03:24:59;19.90;99.90
8537;DHT22;4306;50.210;10.628;2023-08-21T03:27:25;19.90;99.90
8537;DHT22;4306;50.210;10.628;2023-08-21T03:29:52;20.00;99.90
8537;DHT22;4306;50.210;10.628;2023-08-21T03:32:19;20.00;99.90
8537;DHT22;4306;50.210;10.628;2023-08-21T03:34:46;20.00;99.90
8537;DHT22;4306;50.210;10.628;2023-08-21T03:37:13;20.00;99.90
8537;DHT22;4306;50.210;10.628;2023-08-21T03:39:39;20.00;99.90
8537;DHT22;4306;50.210;10.628;2023-08-21T03:42:08;19.90;99.90
8537;DHT22;4306;50.210;10.628;2023-08-21T03:44:34;19.80;99.90
8537;DHT22;4306;50.210;10.628;2023-08-21T03:47:01;19.80;99.90
8537;DHT22;4306;50.210;10.628;2023-08-21T03:49:28;19.70;99.90
8537;DHT22;4306;50.210;10.628;2023-08-21T03:51:55;19.80;99.90
8537;DHT22;4306;50.210;10.628;2023-08-21T03:54:22;19.80;99.90
8537;DHT22;4306;50.210;10.628;2023-08-21T03:56:48;19.80;99.90
8537;DHT22;4306;50.210;10.628;2023-08-21T03:59:16;19.80;99.90
8537;DHT22;4306;50.210;10.628;2023-08-21T04:01:43;19.70;99.90
8537;DHT22;4306;50.210;10.628;2023-08-21T04:04:10;19.60;99.90
8537;DHT22;4306;50.210;10.628;2023-08-21T04:06:37;19.60;99.90
8537;DHT22;4306;50.210;10.628;2023-08-21T04:09:04;19.60;99.90
8537;DHT22;4306;50.210;10.628;2023-08-21T04:11:32;19.60;99.90
8537;DHT22;4306;50.210;10.628;2023-08-21T04:13:59;19.60;99.90
8537;DHT22;4306;50.210;10.628;2023-08-21T04:16:28;19.50;99.90
8537;DHT22;4306;50.210;10.628;2023-08-21T04:18:56;19.20;99.90
8537;DHT22;4306;50.210;10.628;2023-08-21T04:21:23;19.30;99.90
8537;DHT22;4306;50.210;10.628;2023-08-21T04:23:50;19.40;99.90
8537;DHT22;4306;50.210;10.628;2023-08-21T04:26:17;19.40;99.90
8537;DHT22;4306;50.210;10.628;2023-08-21T04:28:43;19.40;99.90
8537;DHT22;4306;50.210;10.628;2023-08-21T04:31:10;19.40;99.90
8537;DHT22;4306;50.210;10.628;2023-08-21T04:33:38;19.40;99.90
8537;DHT22;4306;50.210;10.628;2023-08-21T04:36:05;19.30;99.90
8537;DHT22;4306;50.210;10.628;2023-08-21T04:38:32;19.30;99.90
8537;DHT22;4306;50.210;10.628;2023-08-21T04:41:06;19.40;99.90
8537;DHT22;4306;50.210;10.628;2023-08-21T04:43:33;19.40;99.90
8537;DHT22;4306;50.210;10.628;2023-08-21T04:46:00;19.40;99.90
8537;DHT22;4306;50.210;10.628;2023-08-21T04:48:27;19.50;99.90
8537;DHT22;4306;50.210;10.628;2023-08-21T04:50:55;19.40;99.90
8537;DHT22;4306;50.210;10.628;2023-08-21T04:53:22;19.50;99.90
8537;DHT22;4306;50.210;10.628;2023-08-21T04:55:49;19.50;99.90
8537;DHT22;4306;50.210;10.628;2023-08-21T04:58:15;19.50;99.90
8537;DHT22;4306;50.210;10.628;2023-08-21T05:00:44;19.50;99.90
8537;DHT22;4306;50.210;10.628;2023-08-21T05:03:11;19.60;99.90
8537;DHT22;4306;50.210;10.628;2023-08-21T05:05:39;19.60;99.90
8537;DHT22;4306;50.210;10.628;2023-08-21T05:08:07;19.60;99.90
8537;DHT22;4306;50.210;10.628;2023-08-21T05:10:34;19.60;99.90
8537;DHT22;4306;50.210;10.628;2023-08-21T05:13:00;19.70;99.90
8537;DHT22;4306;50.210;10.628;2023-08-21T05:15:27;19.70;99.90
8537;DHT22;4306;50.210;10.628;2023-08-21T05:17:54;19.80;99.90
8537;DHT22;4306;50.210;10.628;2023-08-21T05:20:21;19.80;99.90
8537;DHT22;4306;50.210;10.628;2023-08-21T05:22:48;19.90;99.90
8537;DHT22;4306;50.210;10.628;2023-08-21T05:25:16;19.90;99.90
8537;DHT22;4306;50.210;10.628;2023-08-21T05:27:43;19.90;99.90
8537;DHT22;4306;50.210;10.628;2023-08-21T05:30:10;19.90;99.90
8537;DHT22;4306;50.210;10.628;2023-08-21T05:32:39;20.00;99.90
8537;DHT22;4306;50.210;10.628;2023-08-21T05:35:06;20.00;99.90
8537;DHT22;4306;50.210;10.628;2023-08-21T05:37:34;20.10;99.90
8537;DHT22;4306;50.210;10.628;2023-08-21T05:40:01;20.10;99.90
8537;DHT22;4306;50.210;10.628;2023-08-21T05:42:30;20.10;99.90
8537;DHT22;4306;50.210;10.628;2023-08-21T05:44:57;20.20;99.90
8537;DHT22;4306;50.210;10.628;2023-08-21T05:47:24;20.30;99.90
8537;DHT22;4306;50.210;10.628;2023-08-21T05:49:52;20.30;99.90
8537;DHT22;4306;50.210;10.628;2023-08-21T05:52:20;20.30;99.90
8537;DHT22;4306;50.210;10.628;2023-08-21T05:54:47;20.40;99.90
8537;DHT22;4306;50.210;10.628;2023-08-21T05:57:14;20.50;99.90
8537;DHT22;4306;50.210;10.628;2023-08-21T05:59:45;20.50;99.90
8537;DHT22;4306;50.210;10.628;2023-08-21T06:02:12;20.50;99.90
8537;DHT22;4306;50.210;10.628;2023-08-21T06:04:39;20.60;99.90
8537;DHT22;4306;50.210;10.628;2023-08-21T06:07:07;20.70;99.90
8537;DHT22;4306;50.210;10.628;2023-08-21T06:09:34;20.70;99.90
8537;DHT22;4306;50.210;10.628;2023-08-21T06:12:02;20.80;99.90
8537;DHT22;4306;50.210;10.628;2023-08-21T06:14:29;20.80;99.90
8537;DHT22;4306;50.210;10.628;2023-08-21T06:16:59;20.90;99.90
8537;DHT22;4306;50.210;10.628;2023-08-21T06:19:27;21.00;99.90
8537;DHT22;4306;50.210;10.628;2023-08-21T06:21:54;21.10;99.90
8537;DHT22;4306;50.210;10.628;2023-08-21T06:24:21;21.20;99.90
8537;DHT22;4306;50.210;10.628;2023-08-21T06:26:48;21.20;99.90
8537;DHT22;4306;50.210;10.628;2023-08-21T06:29:15;21.30;99.90
8537;DHT22;4306;50.210;10.628;2023-08-21T06:31:42;21.40;99.90
8537;DHT22;4306;50.210;10.628;2023-08-21T06:34:10;21.50;99.90
8537;DHT22;4306;50.210;10.628;2023-08-21T06:36:37;21.60;99.90
8537;DHT22;4306;50.210;10.628;2023-08-21T06:39:05;21.60;99.90
8537;DHT22;4306;50.210;10.628;2023-08-21T06:41:32;21.70;99.90
8537;DHT22;4306;50.210;10.628;2023-08-21T06:43:59;21.80;99.90
8537;DHT22;4306;50.210;10.628;2023-08-21T06:46:26;22.00;99.90
8537;DHT22;4306;50.210;10.628;2023-08-21T06:48:53;22.00;99.90
8537;DHT22;4306;50.210;10.628;2023-08-21T06:51:21;22.10;99.90
8537;DHT22;4306;50.210;10.628;2023-08-21T06:53:48;22.20;99.90
8537;DHT22;4306;50.210;10.628;2023-08-21T06:56:15;22.30;99.90
8537;DHT22;4306;50.210;10.628;2023-08-21T06:58:43;22.40;99.90
8537;DHT22;4306;50.210;10.628;2023-08-21T07:01:10;22.40;99.90
8537;DHT22;4306;50.210;10.628;2023-08-21T07:03:36;22.50;99.90
8537;DHT22;4306;50.210;10.628;2023-08-21T07:06:03;22.60;99.90
8537;DHT22;4306;50.210;10.628;2023-08-21T07:08:32;22.50;99.90
8537;DHT22;4306;50.210;10.628;2023-08-21T07:11:02;22.80;99.90
8537;DHT22;4306;50.210;10.628;2023-08-21T07:13:30;22.90;99.90
8537;DHT22;4306;50.210;10.628;2023-08-21T07:15:57;23.00;99.90
8537;DHT22;4306;50.210;10.628;2023-08-21T07:18:23;23.10;99.90
8537;DHT22;4306;50.210;10.628;2023-08-21T07:20:52;23.20;99.90
8537;DHT22;4306;50.210;10.628;2023-08-21T07:23:19;23.30;99.90
8537;DHT22;4306;50.210;10.628;2023-08-21T07:25:48;23.40;99.90
8537;DHT22;4306;50.210;10.628;2023-08-21T07:28:14;23.50;99.90
8537;DHT22;4306;50.210;10.628;2023-08-21T07:30:41;23.60;99.90
8537;DHT22;4306;50.210;10.628;2023-08-21T07:33:09;23.70;99.90
8537;DHT22;4306;50.210;10.628;2023-08-21T07:35:36;23.80;99.90
8537;DHT22;4306;50.210;10.628;2023-08-21T07:38:03;24.00;99.90
8537;DHT22;4306;50.210;10.628;2023-08-21T07:40:30;24.10;99.90
8537;DHT22;4306;50.210;10.628;2023-08-21T07:42:58;24.20;99.90
8537;DHT22;4306;50.210;10.628;2023-08-21T07:45:28;24.20;99.90
8537;DHT22;4306;50.210;10.628;2023-08-21T07:47:55;24.40;99.90
8537;DHT22;4306;50.210;10.628;2023-08-21T07:50:22;24.40;99.90
8537;DHT22;4306;50.210;10.628;2023-08-21T07:52:49;24.50;99.90
8537;DHT22;4306;50.210;10.628;2023-08-21T07:55:16;24.60;99.90
8537;DHT22;4306;50.210;10.628;2023-08-21T07:57:43;24.70;99.90
8537;DHT22;4306;50.210;10.628;2023-08-21T08:00:12;24.70;99.90
8537;DHT22;4306;50.210;10.628;2023-08-21T08:02:40;24.80;99.90
8537;DHT22;4306;50.210;10.628;2023-08-21T08:05:08;24.90;99.90
8537;DHT22;4306;50.210;10.628;2023-08-21T08:07:35;25.00;99.90
8537;DHT22;4306;50.210;10.628;2023-08-21T08:10:03;25.00;99.90
8537;DHT22;4306;50.210;10.628;2023-08-21T08:12:30;25.00;99.90
8537;DHT22;4306;50.210;10.628;2023-08-21T08:14:58;25.10;99.90
8537;DHT22;4306;50.210;10.628;2023-08-21T08:17:27;25.20;99.90
8537;DHT22;4306;50.210;10.628;2023-08-21T08:19:54;25.20;99.90
8537;DHT22;4306;50.210;10.628;2023-08-21T08:22:21;25.30;99.90
8537;DHT22;4306;50.210;10.628;2023-08-21T08:24:48;25.30;99.90
8537;DHT22;4306;50.210;10.628;2023-08-21T08:27:15;25.40;99.90
8537;DHT22;4306;50.210;10.628;2023-08-21T08:29:42;25.50;99.90
8537;DHT22;4306;50.210;10.628;2023-08-21T08:32:09;25.60;99.90
8537;DHT22;4306;50.210;10.628;2023-08-21T08:34:37;25.60;99.90
8537;DHT22;4306;50.210;10.628;2023-08-21T08:37:04;25.70;99.90
8537;DHT22;4306;50.210;10.628;2023-08-21T08:39:31;25.70;99.90
8537;DHT22;4306;50.210;10.628;2023-08-21T08:42:02;25.70;99.90
8537;DHT22;4306;50.210;10.628;2023-08-21T08:44:30;25.70;99.90
8537;DHT22;4306;50.210;10.628;2023-08-21T08:46:57;25.80;99.90
8537;DHT22;4306;50.210;10.628;2023-08-21T08:49:26;25.90;99.90
8537;DHT22;4306;50.210;10.628;2023-08-21T08:51:55;25.90;99.90
8537;DHT22;4306;50.210;10.628;2023-08-21T08:54:22;26.00;99.90
8537;DHT22;4306;50.210;10.628;2023-08-21T08:56:50;26.00;99.90
8537;DHT22;4306;50.210;10.628;2023-08-21T08:59:17;26.10;99.90
8537;DHT22;4306;50.210;10.628;2023-08-21T09:01:44;26.20;99.90
8537;DHT22;4306;50.210;10.628;2023-08-21T09:04:12;26.20;99.90
8537;DHT22;4306;50.210;10.628;2023-08-21T09:06:39;26.30;99.90
8537;DHT22;4306;50.210;10.628;2023-08-21T09:09:07;26.30;99.90
8537;DHT22;4306;50.210;10.628;2023-08-21T09:11:41;26.40;99.90
8537;DHT22;4306;50.210;10.628;2023-08-21T09:14:10;26.50;99.90
8537;DHT22;4306;50.210;10.628;2023-08-21T09:16:37;26.40;99.90
8537;DHT22;4306;50.210;10.628;2023-08-21T09:19:04;26.50;99.90
8537;DHT22;4306;50.210;10.628;2023-08-21T09:21:31;26.60;99.90
8537;DHT22;4306;50.210;10.628;2023-08-21T09:23:59;26.60;99.90
8537;DHT22;4306;50.210;10.628;2023-08-21T09:26:30;26.70;99.90
8537;DHT22;4306;50.210;10.628;2023-08-21T09:28:59;26.80;99.90
8537;DHT22;4306;50.210;10.628;2023-08-21T09:31:30;26.90;99.90
8537;DHT22;4306;50.210;10.628;2023-08-21T09:33:59;26.90;99.90
8537;DHT22;4306;50.210;10.628;2023-08-21T09:36:26;27.00;99.70
8537;DHT22;4306;50.210;10.628;2023-08-21T09:38:54;27.00;99.00
8537;DHT22;4306;50.210;10.628;2023-08-21T09:41:21;27.00;99.00
8537;DHT22;4306;50.210;10.628;2023-08-21T09:43:49;27.00;99.90
8537;DHT22;4306;50.210;10.628;2023-08-21T09:46:21;27.20;98.60
8537;DHT22;4306;50.210;10.628;2023-08-21T09:48:51;27.30;98.60
8537;DHT22;4306;50.210;10.628;2023-08-21T09:51:19;27.40;98.30
8537;DHT22;4306;50.210;10.628;2023-08-21T09:53:48;27.40;98.80
8537;DHT22;4306;50.210;10.628;2023-08-21T09:56:16;27.40;99.00
8537;DHT22;4306;50.210;10.628;2023-08-21T09:58:43;27.50;98.70
8537;DHT22;4306;50.210;10.628;2023-08-21T10:01:12;27.50;98.60
8537;DHT22;4306;50.210;10.628;2023-08-21T10:03:41;27.60;97.40
8537;DHT22;4306;50.210;10.628;2023-08-21T10:06:10;27.60;97.30
8537;DHT22;4306;50.210;10.628;2023-08-21T10:08:39;27.60;97.40
8537;DHT22;4306;50.210;10.628;2023-08-21T10:11:07;27.80;97.50
8537;DHT22;4306;50.210;10.628;2023-08-21T10:13:37;27.80;97.50
8537;DHT22;4306;50.210;10.628;2023-08-21T10:16:05;27.70;97.50
8537;DHT22;4306;50.210;10.628;2023-08-21T10:18:35;27.80;97.30
8537;DHT22;4306;50.210;10.628;2023-08-21T10:21:11;27.90;97.30
8537;DHT22;4306;50.210;10.628;2023-08-21T10:23:39;27.90;96.50
8537;DHT22;4306;50.210;10.628;2023-08-21T10:26:07;28.00;96.80
8537;DHT22;4306;50.210;10.628;2023-08-21T10:28:51;28.00;97.40
8537;DHT22;4306;50.210;10.628;2023-08-21T10:31:34;28.10;97.40
8537;DHT22;4306;50.210;10.628;2023-08-21T10:34:04;28.10;95.30
8537;DHT22;4306;50.210;10.628;2023-08-21T10:36:42;28.10;96.60
8537;DHT22;4306;50.210;10.628;2023-08-21T10:39:28;28.10;96.30
8537;DHT22;4306;50.210;10.628;2023-08-21T10:42:01;28.20;97.30
8537;DHT22;4306;50.210;10.628;2023-08-21T10:47:19;28.30;96.50
8537;DHT22;4306;50.210;10.628;2023-08-21T10:49:49;28.30;95.10
8537;DHT22;4306;50.210;10.628;2023-08-21T10:52:21;28.50;94.40
8537;DHT22;4306;50.210;10.628;2023-08-21T10:54:50;28.40;95.30
8537;DHT22;4306;50.210;10.628;2023-08-21T10:57:17;28.50;94.40
8537;DHT22;4306;50.210;10.628;2023-08-21T10:59:55;28.50;95.10
8537;DHT22;4306;50.210;10.628;2023-08-21T11:02:23;28.50;96.10
8537;DHT22;4306;50.210;10.628;2023-08-21T11:04:52;28.60;94.80
8537;DHT22;4306;50.210;10.628;2023-08-21T11:07:19;28.60;94.60
8537;DHT22;4306;50.210;10.628;2023-08-21T11:09:47;28.60;93.00
8537;DHT22;4306;50.210;10.628;2023-08-21T11:12:15;28.70;92.20
8537;DHT22;4306;50.210;10.628;2023-08-21T11:14:43;28.80;92.80
8537;DHT22;4306;50.210;10.628;2023-08-21T11:17:11;28.80;92.40
8537;DHT22;4306;50.210;10.628;2023-08-21T11:19:39;28.80;92.50
8537;DHT22;4306;50.210;10.628;2023-08-21T11:22:08;28.90;93.20
8537;DHT22;4306;50.210;10.628;2023-08-21T11:24:45;28.90;90.30
8537;DHT22;4306;50.210;10.628;2023-08-21T11:27:14;28.80;91.20
8537;DHT22;4306;50.210;10.628;2023-08-21T11:29:43;28.80;93.00
8537;DHT22;4306;50.210;10.628;2023-08-21T11:32:12;29.00;93.00
8537;DHT22;4306;50.210;10.628;2023-08-21T11:34:40;29.00;92.50
8537;DHT22;4306;50.210;10.628;2023-08-21T11:37:08;29.10;93.50
8537;DHT22;4306;50.210;10.628;2023-08-21T11:39:42;29.20;93.10
8537;DHT22;4306;50.210;10.628;2023-08-21T11:42:10;29.30;92.00
8537;DHT22;4306;50.210;10.628;2023-08-21T11:44:45;29.20;91.90
8537;DHT22;4306;50.210;10.628;2023-08-21T11:47:13;29.40;92.20
8537;DHT22;4306;50.210;10.628;2023-08-21T11:49:41;29.40;92.50
8537;DHT22;4306;50.210;10.628;2023-08-21T11:52:10;29.60;93.00
8537;DHT22;4306;50.210;10.628;2023-08-21T11:54:38;29.60;91.80
8537;DHT22;4306;50.210;10.628;2023-08-21T11:57:07;29.60;91.10
8537;DHT22;4306;50.210;10.628;2023-08-21T11:59:35;29.70;91.40
8537;DHT22;4306;50.210;10.628;2023-08-21T12:02:13;29.70;91.60
8537;DHT22;4306;50.210;10.628;2023-08-21T12:04:41;29.80;92.40
8537;DHT22;4306;50.210;10.628;2023-08-21T12:07:09;29.90;91.20
8537;DHT22;4306;50.210;10.628;2023-08-21T12:09:36;29.90;91.70
8537;DHT22;4306;50.210;10.628;2023-08-21T12:12:04;29.90;91.10
8537;DHT22;4306;50.210;10.628;2023-08-21T12:14:31;29.90;91.20
8537;DHT22;4306;50.210;10.628;2023-08-21T12:16:58;29.90;91.30
8537;DHT22;4306;50.210;10.628;2023-08-21T12:19:25;30.00;91.60
8537;DHT22;4306;50.210;10.628;2023-08-21T12:21:53;30.10;91.20
8537;DHT22;4306;50.210;10.628;2023-08-21T12:24:21;30.10;90.50
8537;DHT22;4306;50.210;10.628;2023-08-21T12:26:48;30.20;91.80
8537;DHT22;4306;50.210;10.628;2023-08-21T12:29:15;30.30;92.00
8537;DHT22;4306;50.210;10.628;2023-08-21T12:31:42;30.40;92.30
8537;DHT22;4306;50.210;10.628;2023-08-21T12:34:09;30.50;91.20
8537;DHT22;4306;50.210;10.628;2023-08-21T12:36:36;30.50;91.20
8537;DHT22;4306;50.210;10.628;2023-08-21T12:39:03;30.40;91.20
8537;DHT22;4306;50.210;10.628;2023-08-21T12:41:32;30.50;91.90
8537;DHT22;4306;50.210;10.628;2023-08-21T12:43:59;30.70;91.40
8537;DHT22;4306;50.210;10.628;2023-08-21T12:46:26;30.80;91.60
8537;DHT22;4306;50.210;10.628;2023-08-21T12:48:54;30.80;91.20
8537;DHT22;4306;50.210;10.628;2023-08-21T12:51:22;30.90;90.20
8537;DHT22;4306;50.210;10.628;2023-08-21T12:53:49;30.90;90.00
8537;DHT22;4306;50.210;10.628;2023-08-21T12:56:16;31.10;90.30
8537;DHT22;4306;50.210;10.628;2023-08-21T12:58:45;30.80;88.70
8537;DHT22;4306;50.210;10.628;2023-08-21T13:01:13;31.00;88.30
8537;DHT22;4306;50.210;10.628;2023-08-21T13:03:44;31.20;90.10
8537;DHT22;4306;50.210;10.628;2023-08-21T13:06:11;31.30;88.50
8537;DHT22;4306;50.210;10.628;2023-08-21T13:08:38;31.50;86.30
8537;DHT22;4306;50.210;10.628;2023-08-21T13:11:05;31.60;88.10
8537;DHT22;4306;50.210;10.628;2023-08-21T13:13:32;31.70;87.40
8537;DHT22;4306;50.210;10.628;2023-08-21T13:16:00;31.90;83.90
8537;DHT22;4306;50.210;10.628;2023-08-21T13:18:29;31.80;82.90
8537;DHT22;4306;50.210;10.628;2023-08-21T13:20:56;31.80;83.60
8537;DHT22;4306;50.210;10.628;2023-08-21T13:23:23;31.80;84.30
8537;DHT22;4306;50.210;10.628;2023-08-21T13:25:50;32.00;85.40
8537;DHT22;4306;50.210;10.628;2023-08-21T13:28:17;32.10;85.50
8537;DHT22;4306;50.210;10.628;2023-08-21T13:30:44;32.10;84.20
8537;DHT22;4306;50.210;10.628;2023-08-21T13:33:14;32.10;84.40
8537;DHT22;4306;50.210;10.628;2023-08-21T13:35:43;31.80;85.90
8537;DHT22;4306;50.210;10.628;2023-08-21T13:38:11;31.90;86.50
8537;DHT22;4306;50.210;10.628;2023-08-21T13:40:38;32.00;85.30
8537;DHT22;4306;50.210;10.628;2023-08-21T13:43:06;31.90;82.40
8537;DHT22;4306;50.210;10.628;2023-08-21T13:45:36;32.00;84.00
8537;DHT22;4306;50.210;10.628;2023-08-21T13:48:03;32.10;82.80
8537;DHT22;4306;50.210;10.628;2023-08-21T13:50:32;32.10;85.10
8537;DHT22;4306;50.210;10.628;2023-08-21T13:52:59;32.00;81.00
8537;DHT22;4306;50.210;10.628;2023-08-21T13:55:26;31.60;81.00
8537;DHT22;4306;50.210;10.628;2023-08-21T13:57:53;31.50;83.00
8537;DHT22;4306;50.210;10.628;2023-08-21T14:00:20;31.70;82.60
8537;DHT22;4306;50.210;10.628;2023-08-21T14:02:47;31.70;81.80
8537;DHT22;4306;50.210;10.628;2023-08-21T14:05:14;31.70;81.80
8537;DHT22;4306;50.210;10.628;2023-08-21T14:07:43;31.50;82.40
8537;DHT22;4306;50.210;10.628;2023-08-21T14:10:10;31.70;83.40
8537;DHT22;4306;50.210;10.628;2023-08-21T14:12:39;31.80;80.80
8537;DHT22;4306;50.210;10.628;2023-08-21T14:15:07;31.40;82.30
8537;DHT22;4306;50.210;10.628;2023-08-21T14:17:34;31.50;84.20
8537;DHT22;4306;50.210;10.628;2023-08-21T14:20:01;31.60;85.20
8537;DHT22;4306;50.210;10.628;2023-08-21T14:22:28;31.60;82.70
8537;DHT22;4306;50.210;10.628;2023-08-21T14:24:57;31.70;82.40
8537;DHT22;4306;50.210;10.628;2023-08-21T14:27:24;31.40;81.50
8537;DHT22;4306;50.210;10.628;2023-08-21T14:29:51;30.90;82.30
8537;DHT22;4306;50.210;10.628;2023-08-21T14:32:17;31.00;84.10
8537;DHT22;4306;50.210;10.628;2023-08-21T14:34:44;31.20;84.90
8537;DHT22;4306;50.210;10.628;2023-08-21T14:37:12;31.40;85.40
8537;DHT22;4306;50.210;10.628;2023-08-21T14:39:41;31.60;82.70
8537;DHT22;4306;50.210;10.628;2023-08-21T14:42:09;31.60;80.60
8537;DHT22;4306;50.210;10.628;2023-08-21T14:44:36;31.30;78.50
8537;DHT22;4306;50.210;10.628;2023-08-21T14:47:03;31.50;81.50
8537;DHT22;4306;50.210;10.628;2023-08-21T14:49:32;31.60;79.40
8537;DHT22;4306;50.210;10.628;2023-08-21T14:51:59;31.30;78.70
8537;DHT22;4306;50.210;10.628;2023-08-21T14:54:26;31.30;79.70
8537;DHT22;4306;50.210;10.628;2023-08-21T14:56:53;31.50;82.90
8537;DHT22;4306;50.210;10.628;2023-08-21T14:59:21;31.70;81.40
8537;DHT22;4306;50.210;10.628;2023-08-21T15:01:48;31.80;81.70
8537;DHT22;4306;50.210;10.628;2023-08-21T15:04:15;31.70;79.00
8537;DHT22;4306;50.210;10.628;2023-08-21T15:06:42;31.80;80.80
8537;DHT22;4306;50.210;10.628;2023-08-21T15:09:09;32.00;81.40
8537;DHT22;4306;50.210;10.628;2023-08-21T15:11:36;32.00;81.60
8537;DHT22;4306;50.210;10.628;2023-08-21T15:14:08;32.00;80.30
8537;DHT22;4306;50.210;10.628;2023-08-21T15:16:37;32.00;79.70
8537;DHT22;4306;50.210;10.628;2023-08-21T15:19:04;32.00;78.70
8537;DHT22;4306;50.210;10.628;2023-08-21T15:21:31;32.00;80.40
8537;DHT22;4306;50.210;10.628;2023-08-21T15:23:58;32.00;81.70
8537;DHT22;4306;50.210;10.628;2023-08-21T15:26:25;31.90;80.90
8537;DHT22;4306;50.210;10.628;2023-08-21T15:28:52;31.90;80.30
8537;DHT22;4306;50.210;10.628;2023-08-21T15:31:19;31.80;80.10
8537;DHT22;4306;50.210;10.628;2023-08-21T15:33:47;31.70;80.10
8537;DHT22;4306;50.210;10.628;2023-08-21T15:36:14;31.50;82.30
8537;DHT22;4306;50.210;10.628;2023-08-21T15:38:41;31.40;83.70
8537;DHT22;4306;50.210;10.628;2023-08-21T15:41:08;31.50;84.00
8537;DHT22;4306;50.210;10.628;2023-08-21T15:43:35;31.60;84.40
8537;DHT22;4306;50.210;10.628;2023-08-21T15:46:03;31.70;84.40
8537;DHT22;4306;50.210;10.628;2023-08-21T15:48:31;31.50;82.20
8537;DHT22;4306;50.210;10.628;2023-08-21T15:51:00;31.60;84.90